createdAt,value
2022-12-17T00:02:42.857Z,150.20
2022-12-17T00:05:28.938Z,133.23
2022-12-17T00:08:19.176Z,153.07
2022-12-17T00:11:05.438Z,106.90
2022-12-17T00:13:51.744Z,147.60
2022-12-17T00:16:37.808Z,131.43
2022-12-17T00:19:23.924Z,127.23
2022-12-17T00:22:10.223Z,119.83
2022-12-17T00:24:56.483Z,125.43
2022-12-17T00:27:42.667Z,114.60
2022-12-17T00:30:32.602Z,121.73
2022-12-17T00:33:18.694Z,108.13
2022-12-17T00:36:14.065Z,108.27
2022-12-17T00:39:00.040Z,139.17
2022-12-17T00:41:46.082Z,133.40
2022-12-17T00:44:32.411Z,121.00
2022-12-17T00:47:20.494Z,116.80
2022-12-17T00:50:07.959Z,133.60
2022-12-17T00:52:54.301Z,122.00
2022-12-17T00:55:42.416Z,112.17
2022-12-17T00:58:28.662Z,116.87
2022-12-17T01:01:19.956Z,115.47
2022-12-17T01:04:06.127Z,114.83
2022-12-17T01:06:53.864Z,105.80
2022-12-17T01:09:41.531Z,109.07
2022-12-17T01:12:27.965Z,103.13
2022-12-17T01:15:14.126Z,122.10
2022-12-17T01:18:00.359Z,96.67
2022-12-17T01:20:46.674Z,99.33
2022-12-17T01:23:35.543Z,122.17
2022-12-17T01:26:22.219Z,120.07
2022-12-17T01:29:08.953Z,123.50
2022-12-17T01:32:09.012Z,105.63
2022-12-17T01:34:57.063Z,93.37
2022-12-17T01:37:43.373Z,122.37
2022-12-17T01:40:30.452Z,99.37
2022-12-17T01:43:18.721Z,104.90
2022-12-17T01:46:08.316Z,108.00
2022-12-17T01:49:06.444Z,98.73
2022-12-17T01:51:54.401Z,106.23
2022-12-17T01:54:41.396Z,100.33
2022-12-17T01:57:28.229Z,108.57
2022-12-17T02:00:29.212Z,112.37
2022-12-17T02:03:18.579Z,96.33
2022-12-17T02:06:45.053Z,94.67
2022-12-17T02:10:23.267Z,90.37
2022-12-17T02:13:23.864Z,88.53
2022-12-17T02:16:36.814Z,86.70
2022-12-17T02:20:39.240Z,102.77
2022-12-17T02:24:25.759Z,86.00
2022-12-17T02:27:26.902Z,96.87
2022-12-17T02:30:24.487Z,76.93
2022-12-17T02:33:13.530Z,88.00
2022-12-17T02:36:32.514Z,86.33
2022-12-17T02:39:18.517Z,83.83
2022-12-17T02:42:14.606Z,80.17
2022-12-17T02:45:03.293Z,77.57
2022-12-17T02:47:50.613Z,77.40
2022-12-17T02:50:37.524Z,87.60
2022-12-17T02:53:23.766Z,91.70
2022-12-17T02:56:09.958Z,90.27
2022-12-17T02:58:57.389Z,82.47
2022-12-17T03:01:43.475Z,74.53
2022-12-17T03:04:29.553Z,77.03
2022-12-17T03:07:16.014Z,60.30
2022-12-17T03:10:02.286Z,88.27
2022-12-17T03:12:52.244Z,66.60
2022-12-17T03:15:39.593Z,117.53
2022-12-17T03:18:27.181Z,88.40
2022-12-17T03:21:14.980Z,87.27
2022-12-17T03:24:02.280Z,91.07
2022-12-17T03:26:50.638Z,80.40
2022-12-17T03:29:36.899Z,89.90
2022-12-17T03:32:24.444Z,86.87
2022-12-17T03:35:11.791Z,75.07
2022-12-17T03:37:58.487Z,101.50
2022-12-17T03:40:44.718Z,73.67
2022-12-17T03:43:31.819Z,76.03
2022-12-17T03:46:17.884Z,83.97
2022-12-17T03:49:04.009Z,75.73
2022-12-17T03:51:50.366Z,74.70
2022-12-17T03:54:36.518Z,77.40
2022-12-17T03:57:22.780Z,69.00
2022-12-17T04:00:08.805Z,67.30
2022-12-17T04:03:00.942Z,68.10
2022-12-17T04:05:46.882Z,59.00
2022-12-17T04:08:33.068Z,71.37
2022-12-17T04:11:19.351Z,61.63
2022-12-17T04:14:05.315Z,65.23
2022-12-17T04:16:51.829Z,57.97
2022-12-17T04:19:37.823Z,62.60
2022-12-17T04:22:25.523Z,61.70
2022-12-17T04:25:11.759Z,79.50
2022-12-17T04:27:58.091Z,73.77
2022-12-17T04:30:44.395Z,63.60
2022-12-17T04:33:30.715Z,64.23
2022-12-17T04:36:20.010Z,67.07
2022-12-17T04:39:06.291Z,67.07
2022-12-17T04:41:52.574Z,54.23
2022-12-17T04:44:38.765Z,60.37
2022-12-17T04:47:24.985Z,67.30
2022-12-17T04:50:11.805Z,65.20
2022-12-17T04:52:58.543Z,63.60
2022-12-17T04:55:44.720Z,66.43
2022-12-17T04:58:30.991Z,68.93
2022-12-17T05:01:17.399Z,67.40
2022-12-17T05:04:03.591Z,65.43
2022-12-17T05:06:49.700Z,59.73
2022-12-17T05:09:36.446Z,65.73
2022-12-17T05:12:22.648Z,71.50
2022-12-17T05:15:08.953Z,76.77
2022-12-17T05:17:55.112Z,66.77
2022-12-17T05:20:41.423Z,73.07
2022-12-17T05:23:28.867Z,79.13
2022-12-17T05:26:41.774Z,75.87
2022-12-17T05:29:28.303Z,68.17
2022-12-17T05:32:14.574Z,75.33
2022-12-17T05:35:00.639Z,77.93
2022-12-17T05:37:47.402Z,64.93
2022-12-17T05:40:34.399Z,82.17
2022-12-17T05:43:28.583Z,64.50
2022-12-17T05:46:17.923Z,76.43
2022-12-17T05:49:04.214Z,66.40
2022-12-17T05:51:50.370Z,67.10
2022-12-17T05:54:48.144Z,71.63
2022-12-17T05:57:34.693Z,58.97
2022-12-17T06:00:20.972Z,75.20
2022-12-17T06:03:07.354Z,69.00
2022-12-17T06:05:53.539Z,66.07
2022-12-17T06:08:39.714Z,58.37
2022-12-17T06:11:26.069Z,66.60
2022-12-17T06:14:12.318Z,65.60
2022-12-17T06:16:58.512Z,82.87
2022-12-17T06:19:44.679Z,61.43
2022-12-17T06:22:30.793Z,67.80
2022-12-17T06:25:16.764Z,74.87
2022-12-17T06:28:03.127Z,68.27
2022-12-17T06:30:49.221Z,65.73
2022-12-17T06:33:35.866Z,67.17
2022-12-17T06:36:23.157Z,77.47
2022-12-17T06:39:09.739Z,61.83
2022-12-17T06:42:00.485Z,54.73
2022-12-17T06:44:50.881Z,69.83
2022-12-17T06:47:38.276Z,55.07
2022-12-17T06:50:26.066Z,57.50
2022-12-17T06:53:25.662Z,61.77
2022-12-17T06:56:12.309Z,57.20
2022-12-17T06:58:58.544Z,72.37
2022-12-17T07:01:45.160Z,75.33
2022-12-17T07:04:31.947Z,77.10
2022-12-17T07:07:18.839Z,76.43
2022-12-17T07:10:10.620Z,63.13
2022-12-17T07:12:59.676Z,72.20
2022-12-17T07:15:45.982Z,62.97
2022-12-17T07:18:32.328Z,64.17
2022-12-17T07:21:18.439Z,52.73
2022-12-17T07:24:04.805Z,56.03
2022-12-17T07:26:50.995Z,59.07
2022-12-17T07:29:37.226Z,63.33
2022-12-17T07:32:24.472Z,75.30
2022-12-17T07:35:10.934Z,56.43
2022-12-17T07:37:56.987Z,64.57
2022-12-17T07:40:43.453Z,79.33
2022-12-17T07:43:34.180Z,59.97
2022-12-17T07:46:20.724Z,60.00
2022-12-17T07:49:06.990Z,43.80
2022-12-17T07:51:53.882Z,46.33
2022-12-17T07:54:39.946Z,54.80
2022-12-17T07:57:26.263Z,58.60
2022-12-17T08:00:12.468Z,56.33
2022-12-17T08:02:58.810Z,52.10
2022-12-17T08:05:45.383Z,57.33
2022-12-17T08:08:33.825Z,49.20
2022-12-17T08:11:19.898Z,56.87
2022-12-17T08:14:06.179Z,49.33
2022-12-17T08:16:52.442Z,49.77
2022-12-17T08:19:38.646Z,48.77
2022-12-17T08:22:24.833Z,49.53
2022-12-17T08:25:11.145Z,50.10
2022-12-17T08:27:57.359Z,55.57
2022-12-17T08:30:43.953Z,59.00
2022-12-17T08:33:31.018Z,56.17
2022-12-17T08:36:17.963Z,45.07
2022-12-17T08:39:04.773Z,52.17
2022-12-17T08:41:54.818Z,55.20
2022-12-17T08:44:42.350Z,45.43
2022-12-17T08:47:28.432Z,48.27
2022-12-17T08:50:15.178Z,49.90
2022-12-17T08:53:01.173Z,44.70
2022-12-17T08:55:47.253Z,53.63
2022-12-17T08:58:33.634Z,55.17
2022-12-17T09:01:20.825Z,62.63
2022-12-17T09:04:07.047Z,53.53
2022-12-17T09:06:53.256Z,55.60
2022-12-17T09:09:39.484Z,49.53
2022-12-17T09:12:25.778Z,62.67
2022-12-17T09:15:11.935Z,45.37
2022-12-17T09:17:58.109Z,44.50
2022-12-17T09:20:44.456Z,52.17
2022-12-17T09:23:54.155Z,53.67
2022-12-17T09:26:41.188Z,44.83
2022-12-17T09:29:27.554Z,51.67
2022-12-17T09:32:14.055Z,52.07
2022-12-17T09:35:00.150Z,47.70
2022-12-17T09:37:46.330Z,54.47
2022-12-17T09:40:44.163Z,54.30
2022-12-17T09:44:08.573Z,42.67
2022-12-17T09:47:18.020Z,42.87
2022-12-17T09:50:05.061Z,55.77
2022-12-17T09:52:59.383Z,55.73
2022-12-17T09:56:11.750Z,56.53
2022-12-17T09:58:59.930Z,49.77
2022-12-17T10:01:54.711Z,48.97
2022-12-17T10:05:04.236Z,43.97
2022-12-17T10:07:57.323Z,41.63
2022-12-17T10:10:50.999Z,48.13
2022-12-17T10:13:42.370Z,44.83
2022-12-17T10:17:09.961Z,38.60
2022-12-17T10:20:01.777Z,46.40
2022-12-17T10:22:47.815Z,43.63
2022-12-17T10:25:41.488Z,48.23
2022-12-17T10:28:42.421Z,35.93
2022-12-17T10:31:41.099Z,41.93
2022-12-17T10:34:39.683Z,40.43
2022-12-17T10:37:40.125Z,40.80
2022-12-17T10:40:53.142Z,43.30
2022-12-17T10:43:52.416Z,41.50
2022-12-17T10:46:53.329Z,39.47
2022-12-17T10:49:44.062Z,33.73
2022-12-17T10:52:50.829Z,41.77
2022-12-17T10:55:48.308Z,42.53
2022-12-17T10:58:48.453Z,38.57
2022-12-17T11:01:45.387Z,41.47
2022-12-17T11:04:56.235Z,38.13
2022-12-17T11:08:04.572Z,42.93
2022-12-17T11:11:02.025Z,38.20
2022-12-17T11:14:03.884Z,38.83
2022-12-17T11:17:15.097Z,35.20
2022-12-17T11:20:46.167Z,34.87
2022-12-17T11:23:40.224Z,31.67
2022-12-17T11:26:37.521Z,32.77
2022-12-17T11:29:33.028Z,26.70
2022-12-17T11:33:10.891Z,37.47
2022-12-17T11:36:49.002Z,32.93
2022-12-17T11:40:05.769Z,30.50
2022-12-17T11:44:02.994Z,36.80
2022-12-17T11:47:45.190Z,39.23
2022-12-17T11:50:52.767Z,43.07
2022-12-17T11:54:32.146Z,46.10
2022-12-17T11:57:58.122Z,50.80
2022-12-17T12:00:44.418Z,39.00
2022-12-17T12:04:05.289Z,39.10
2022-12-17T12:07:42.546Z,38.50
2022-12-17T12:10:48.527Z,34.67
2022-12-17T12:14:23.221Z,46.90
2022-12-17T12:17:29.250Z,47.93
2022-12-17T12:21:12.569Z,39.13
2022-12-17T12:24:36.165Z,36.07
2022-12-17T12:28:43.790Z,36.83
2022-12-17T12:32:14.535Z,33.90
2022-12-17T12:35:04.129Z,39.57
2022-12-17T12:37:53.472Z,40.70
2022-12-17T12:41:22.497Z,34.30
2022-12-17T12:44:23.196Z,37.43
2022-12-17T12:47:40.813Z,35.07
2022-12-17T12:50:59.600Z,35.80
2022-12-17T12:53:46.430Z,35.30
2022-12-17T12:56:55.524Z,39.43
2022-12-17T12:59:55.543Z,39.10
2022-12-17T13:02:51.712Z,42.03
2022-12-17T13:05:38.346Z,38.97
2022-12-17T13:08:24.707Z,33.50
2022-12-17T13:10:54.823Z,33.50
2022-12-17T13:13:56.071Z,37.60
2022-12-17T13:16:47.587Z,35.23
2022-12-17T13:19:58.686Z,38.43
2022-12-17T13:22:36.220Z,33.20
2022-12-17T13:25:23.750Z,41.60
2022-12-17T13:27:51.747Z,40.57
2022-12-17T13:30:24.318Z,38.70
2022-12-17T13:33:52.806Z,39.50
2022-12-17T13:36:51.927Z,44.70
2022-12-17T13:40:15.736Z,51.13
2022-12-17T13:42:47.918Z,42.07
2022-12-17T13:45:25.790Z,42.07
2022-12-17T13:47:59.926Z,43.33
2022-12-17T13:50:34.321Z,42.63
2022-12-17T13:53:16.989Z,36.20
2022-12-17T13:55:58.435Z,42.47
2022-12-17T13:58:36.388Z,50.43
2022-12-17T14:01:18.302Z,45.60
2022-12-17T14:04:20.489Z,42.77
2022-12-17T14:06:50.923Z,50.27
2022-12-17T14:09:24.519Z,53.60
2022-12-17T14:12:11.035Z,44.90
2022-12-17T14:14:55.052Z,42.60
2022-12-17T14:17:29.767Z,43.10
2022-12-17T14:20:13.720Z,47.00
2022-12-17T14:23:01.264Z,47.00
2022-12-17T14:25:49.068Z,51.43
2022-12-17T14:28:50.568Z,44.43
2022-12-17T14:31:29.719Z,46.93
2022-12-17T14:34:11.961Z,42.53
2022-12-17T14:36:47.076Z,38.40
2022-12-17T14:39:33.648Z,47.37
2022-12-17T14:42:32.680Z,45.53
2022-12-17T14:45:08.043Z,46.17
2022-12-17T14:47:38.740Z,47.93
2022-12-17T14:50:37.377Z,43.07
2022-12-17T14:53:28.636Z,45.17
2022-12-17T14:56:02.796Z,48.20
2022-12-17T14:58:31.793Z,44.60
2022-12-17T15:01:17.602Z,44.03
2022-12-17T15:03:49.566Z,48.47
2022-12-17T15:06:21.301Z,46.80
2022-12-17T15:08:53.745Z,46.60
2022-12-17T15:11:24.303Z,46.53
2022-12-17T15:13:56.405Z,52.07
2022-12-17T15:16:25.276Z,51.60
2022-12-17T15:18:53.127Z,49.10
2022-12-17T15:21:21.669Z,51.87
2022-12-17T15:23:50.531Z,47.10
2022-12-17T15:26:19.770Z,53.10
2022-12-17T15:28:47.542Z,55.20
2022-12-17T15:31:19.549Z,58.20
2022-12-17T15:33:49.501Z,45.87
2022-12-17T15:36:17.096Z,45.87
2022-12-17T15:38:46.347Z,57.90
2022-12-17T15:41:37.626Z,49.47
2022-12-17T15:44:05.403Z,56.13
2022-12-17T15:46:33.410Z,50.63
2022-12-17T15:49:02.477Z,50.97
2022-12-17T15:51:30.334Z,48.10
2022-12-17T15:53:58.100Z,44.30
2022-12-17T15:56:29.230Z,53.87
2022-12-17T15:59:00.072Z,62.67
2022-12-17T16:01:27.931Z,45.30
2022-12-17T16:03:55.708Z,50.20
2022-12-17T16:06:23.346Z,45.83
2022-12-17T16:08:50.949Z,48.73
2022-12-17T16:11:18.544Z,46.97
2022-12-17T16:13:46.240Z,46.53
2022-12-17T16:16:13.931Z,46.33
2022-12-17T16:18:41.910Z,45.40
2022-12-17T16:21:09.997Z,52.83
2022-12-17T16:23:38.221Z,42.80
2022-12-17T16:26:09.582Z,48.10
2022-12-17T16:28:38.299Z,40.07
2022-12-17T16:31:16.244Z,45.63
2022-12-17T16:33:47.524Z,43.63
2022-12-17T16:36:21.721Z,54.23
2022-12-17T16:38:55.316Z,48.93
2022-12-17T16:41:24.194Z,43.37
2022-12-17T16:43:51.855Z,47.60
2022-12-17T16:46:42.701Z,53.20
2022-12-17T16:49:21.320Z,46.87
2022-12-17T16:51:57.733Z,51.83
2022-12-17T16:54:32.506Z,49.47
2022-12-17T16:57:04.516Z,47.10
2022-12-17T16:59:32.112Z,41.77
2022-12-17T17:02:00.372Z,50.13
2022-12-17T17:04:28.094Z,49.93
2022-12-17T17:06:58.488Z,48.03
2022-12-17T17:09:26.727Z,47.63
2022-12-17T17:11:59.147Z,49.30
2022-12-17T17:14:27.622Z,58.80
2022-12-17T17:16:55.244Z,48.00
2022-12-17T17:19:22.833Z,50.13
2022-12-17T17:21:54.409Z,54.07
2022-12-17T17:24:26.033Z,48.53
2022-12-17T17:26:56.619Z,53.40
2022-12-17T17:29:24.535Z,50.20
2022-12-17T17:34:40.992Z,84.07
2022-12-17T17:37:09.317Z,52.30
2022-12-17T17:39:37.262Z,55.13
2022-12-17T17:42:05.441Z,60.90
2022-12-17T17:44:33.156Z,66.53
2022-12-17T17:47:01.254Z,65.07
2022-12-17T17:49:29.130Z,72.27
2022-12-17T17:52:12.576Z,90.20
2022-12-17T17:54:41.200Z,71.83
2022-12-17T17:57:10.607Z,68.27
2022-12-17T17:59:39.636Z,84.70
2022-12-17T18:02:11.292Z,67.00
2022-12-17T18:04:40.064Z,80.47
2022-12-17T18:09:56.446Z,76.63
2022-12-17T18:12:43.099Z,80.63
2022-12-17T18:15:16.283Z,77.50
2022-12-17T18:17:51.898Z,85.70
2022-12-17T18:20:20.094Z,72.57
2022-12-17T18:22:48.531Z,76.80
2022-12-17T18:25:17.940Z,75.83
2022-12-17T18:27:45.965Z,77.13
2022-12-17T18:30:16.427Z,71.83
2022-12-17T18:32:44.294Z,77.77
2022-12-17T18:35:12.058Z,69.23
2022-12-17T18:37:39.931Z,72.17
2022-12-17T18:40:08.986Z,76.80
2022-12-17T18:42:55.919Z,76.93
2022-12-17T18:45:23.512Z,68.83
2022-12-17T18:47:51.451Z,78.33
2022-12-17T18:50:19.348Z,68.90
2022-12-17T18:52:46.914Z,67.13
2022-12-17T18:55:14.580Z,65.70
2022-12-17T18:57:42.227Z,63.57
2022-12-17T19:00:11.861Z,71.30
2022-12-17T19:02:39.490Z,62.70
2022-12-17T19:05:08.043Z,67.50
2022-12-17T19:07:35.856Z,70.17
2022-12-17T19:10:04.396Z,62.80
2022-12-17T19:12:33.179Z,66.33
2022-12-17T19:15:00.752Z,56.20
2022-12-17T19:17:28.342Z,61.77
2022-12-17T19:19:55.893Z,55.77
2022-12-17T19:22:23.535Z,62.17
2022-12-17T19:24:51.130Z,70.13
2022-12-17T19:27:19.400Z,66.13
2022-12-17T19:29:49.619Z,65.27
2022-12-17T19:32:17.925Z,65.80
2022-12-17T19:34:45.534Z,60.37
2022-12-17T19:37:13.282Z,55.93
2022-12-17T19:39:40.945Z,64.23
2022-12-17T19:42:24.725Z,59.33
2022-12-17T19:44:57.301Z,57.80
2022-12-17T19:47:25.257Z,58.33
2022-12-17T19:49:52.916Z,51.60
2022-12-17T19:52:20.484Z,53.67
2022-12-17T19:54:49.273Z,54.30
2022-12-17T19:57:16.939Z,65.23
2022-12-17T19:59:45.241Z,57.87
2022-12-17T20:02:12.929Z,57.40
2022-12-17T20:04:40.635Z,52.07
2022-12-17T20:07:08.195Z,60.57
2022-12-17T20:09:35.781Z,60.73
2022-12-17T20:12:03.618Z,63.10
2022-12-17T20:14:31.630Z,63.77
2022-12-17T20:17:01.474Z,68.00
2022-12-17T20:19:33.336Z,61.80
2022-12-17T20:22:05.325Z,66.33
2022-12-17T20:24:33.400Z,61.37
2022-12-17T20:27:01.912Z,63.33
2022-12-17T20:29:29.989Z,59.50
2022-12-17T20:31:57.980Z,67.33
2022-12-17T20:34:26.214Z,65.10
2022-12-17T20:36:54.643Z,67.97
2022-12-17T20:39:27.120Z,59.80
2022-12-17T20:41:57.359Z,68.30
2022-12-17T20:44:25.496Z,63.73
2022-12-17T20:46:53.469Z,68.67
2022-12-17T20:49:21.705Z,75.47
2022-12-17T20:51:49.415Z,70.30
2022-12-17T20:54:17.089Z,69.70
2022-12-17T20:56:44.743Z,70.90
2022-12-17T20:59:19.264Z,82.03
2022-12-17T21:01:53.030Z,84.77
2022-12-17T21:04:24.503Z,75.60
2022-12-17T21:06:53.056Z,77.97
2022-12-17T21:09:22.982Z,81.33
2022-12-17T21:11:50.756Z,74.97
2022-12-17T21:14:19.775Z,77.67
2022-12-17T21:16:48.285Z,70.53
2022-12-17T21:19:20.171Z,76.00
2022-12-17T21:21:48.507Z,78.90
2022-12-17T21:24:16.500Z,75.33
2022-12-17T21:26:47.322Z,61.70
2022-12-17T21:29:16.630Z,70.27
2022-12-17T21:31:52.676Z,71.00
2022-12-17T21:34:25.459Z,70.43
2022-12-17T21:36:53.352Z,65.50
2022-12-17T21:39:21.685Z,68.10
2022-12-17T21:42:08.901Z,78.03
2022-12-17T21:44:37.740Z,74.97
2022-12-17T21:47:05.887Z,73.73
2022-12-17T21:49:33.534Z,68.67
2022-12-17T21:52:02.976Z,69.83
2022-12-17T21:54:30.607Z,71.77
2022-12-17T21:56:58.350Z,67.70
2022-12-17T21:59:26.604Z,67.47
2022-12-17T22:01:57.514Z,82.30
2022-12-17T22:04:26.755Z,78.17
2022-12-17T22:07:03.312Z,83.13
2022-12-17T22:10:02.264Z,92.53
2022-12-17T22:12:45.799Z,76.70
2022-12-17T22:15:13.435Z,87.20
2022-12-17T22:17:42.628Z,85.27
2022-12-17T22:20:17.905Z,90.33
2022-12-17T22:22:46.432Z,80.67
2022-12-17T22:25:14.902Z,81.77
2022-12-17T22:27:43.802Z,105.20
2022-12-17T22:30:36.734Z,86.50
2022-12-17T22:33:10.934Z,69.80
2022-12-17T22:37:05.223Z,72.83
2022-12-17T22:42:56.266Z,72.63
2022-12-17T22:44:39.221Z,78.83
2022-12-17T22:44:51.203Z,73.90
2022-12-17T22:47:17.802Z,75.37
2022-12-17T22:49:45.430Z,76.70
2022-12-17T22:52:13.328Z,74.63
2022-12-17T22:54:42.082Z,67.70
2022-12-17T22:57:36.397Z,73.17
2022-12-17T23:00:01.232Z,71.60
2022-12-17T23:02:28.854Z,71.70
2022-12-17T23:04:57.070Z,79.97
2022-12-17T23:07:28.409Z,65.83
2022-12-17T23:09:59.352Z,80.43
2022-12-17T23:12:45.529Z,73.10
2022-12-17T23:15:13.118Z,71.53
2022-12-17T23:17:40.762Z,75.47
2022-12-17T23:20:09.865Z,74.47
2022-12-17T23:22:37.602Z,78.33
2022-12-17T23:25:07.317Z,74.77
2022-12-17T23:27:35.275Z,83.70
2022-12-17T23:30:02.896Z,76.07
2022-12-17T23:32:30.495Z,70.37
2022-12-17T23:34:58.196Z,70.30
2022-12-17T23:37:28.891Z,77.43
2022-12-17T23:39:56.903Z,65.23
2022-12-17T23:42:24.461Z,73.10
2022-12-17T23:44:52.341Z,70.03
2022-12-17T23:47:20.028Z,65.77
2022-12-17T23:49:48.007Z,75.70
2022-12-17T23:52:15.698Z,75.03
2022-12-17T23:54:43.300Z,68.80
2022-12-17T23:57:10.931Z,75.70
2022-12-17T23:59:38.713Z,76.23
